createdAt,value
2023-05-02T00:00:29.254Z,102046.19
2023-05-02T00:02:55.931Z,102040.09
2023-05-02T00:05:23.232Z,102040.84
2023-05-02T00:07:51.352Z,102045.03
2023-05-02T00:10:18.209Z,102040.84
2023-05-02T00:12:44.760Z,102038.94
2023-05-02T00:15:11.391Z,102046.94
2023-05-02T00:17:41.663Z,102046.94
2023-05-02T00:20:12.237Z,102043.16
2023-05-02T00:22:39.329Z,102039.00
2023-05-02T00:25:06.527Z,102042.41
2023-05-02T00:27:33.315Z,102047.34
2023-05-02T00:30:00.793Z,102041.59
2023-05-02T00:32:28.187Z,102047.69
2023-05-02T00:34:54.863Z,102045.03
2023-05-02T00:37:21.386Z,102046.19
2023-05-02T00:39:47.876Z,102046.53
2023-05-02T00:42:14.331Z,102050.69
2023-05-02T00:44:40.832Z,102040.03
2023-05-02T00:47:07.362Z,102050.28
2023-05-02T00:49:33.919Z,102059.38
2023-05-02T00:52:00.853Z,102052.19
2023-05-02T00:54:27.582Z,102056.38
2023-05-02T00:56:54.105Z,102069.66
2023-05-02T00:59:21.007Z,102069.31
2023-05-02T01:02:00.661Z,102062.50
2023-05-02T01:04:50.831Z,102078.13
2023-05-02T01:07:34.915Z,102080.44
2023-05-02T01:10:23.568Z,102084.66
2023-05-02T01:13:11.963Z,102080.09
2023-05-02T01:15:40.680Z,102078.16
2023-05-02T01:18:10.428Z,102076.25
2023-05-02T01:20:42.379Z,102083.84
2023-05-02T01:23:31.185Z,102083.94
2023-05-02T01:26:14.935Z,102092.75
2023-05-02T01:28:53.611Z,102087.84
2023-05-02T01:31:22.037Z,102097.38
2023-05-02T01:33:49.840Z,102098.19
2023-05-02T01:36:17.629Z,102096.31
2023-05-02T01:38:45.284Z,102107.78
2023-05-02T01:41:14.243Z,102103.25
2023-05-02T01:43:42.385Z,102109.72
2023-05-02T01:46:13.654Z,102107.81
2023-05-02T01:48:44.466Z,102114.38
2023-05-02T01:51:12.126Z,102117.03
2023-05-02T01:53:40.222Z,102120.50
2023-05-02T01:56:07.534Z,102131.13
2023-05-02T01:58:36.103Z,102134.19
2023-05-02T02:01:04.382Z,102142.22
2023-05-02T02:03:32.230Z,102151.75
2023-05-02T02:06:01.063Z,102136.59
2023-05-02T02:08:27.727Z,102137.75
2023-05-02T02:10:59.420Z,102134.31
2023-05-02T02:13:32.784Z,102133.56
2023-05-02T02:16:02.073Z,102132.03
2023-05-02T02:18:30.333Z,102136.59
2023-05-02T02:20:59.311Z,102141.16
2023-05-02T02:23:28.302Z,102147.66
2023-05-02T02:25:56.989Z,102159.44
2023-05-02T02:28:23.740Z,102154.94
2023-05-02T02:30:50.289Z,102168.59
2023-05-02T02:33:17.520Z,102168.63
2023-05-02T02:35:52.707Z,102163.34
2023-05-02T02:39:02.837Z,102177.41
2023-05-02T02:41:39.902Z,102178.53
2023-05-02T02:44:22.703Z,102177.78
2023-05-02T02:47:06.029Z,102181.59
2023-05-02T02:49:32.450Z,102182.75
2023-05-02T02:52:24.717Z,102189.59
2023-05-02T02:55:03.541Z,102181.66
2023-05-02T02:57:40.930Z,102183.94
2023-05-02T03:00:13.947Z,102186.59
2023-05-02T03:02:42.799Z,102190.09
2023-05-02T03:05:11.055Z,102188.56
2023-05-02T03:07:37.620Z,102200.75
2023-05-02T03:10:05.798Z,102196.97
2023-05-02T03:12:34.292Z,102201.53
2023-05-02T03:15:30.733Z,102208.75
2023-05-02T03:17:57.717Z,102207.66
2023-05-02T03:20:24.234Z,102215.63
2023-05-02T03:22:50.760Z,102212.22
2023-05-02T03:25:17.216Z,102219.06
2023-05-02T03:27:47.154Z,102217.56
2023-05-02T03:30:14.214Z,102216.81
2023-05-02T03:32:40.760Z,102223.28
2023-05-02T03:35:07.811Z,102224.41
2023-05-02T03:37:39.430Z,102232.03
2023-05-02T03:40:06.854Z,102230.53
2023-05-02T03:42:39.787Z,102231.31
2023-05-02T03:45:11.194Z,102237.41
2023-05-02T03:47:37.983Z,102245.03
2023-05-02T03:50:04.815Z,102253.78
2023-05-02T03:52:33.862Z,102248.09
2023-05-02T03:55:01.640Z,102247.34
2023-05-02T03:57:32.315Z,102246.22
2023-05-02T04:00:00.596Z,102253.44
2023-05-02T04:02:38.446Z,102258.00
2023-05-02T04:05:08.684Z,102254.25
2023-05-02T04:07:36.361Z,102262.97
2023-05-02T04:10:06.142Z,102266.78
2023-05-02T04:12:37.208Z,102263.75
2023-05-02T04:15:04.049Z,102267.53
2023-05-02T04:17:30.625Z,102274.00
2023-05-02T04:19:57.186Z,102278.19
2023-05-02T04:22:26.513Z,102268.72
2023-05-02T04:24:57.689Z,102275.94
2023-05-02T04:27:25.841Z,102289.59
2023-05-02T04:29:53.380Z,102292.25
2023-05-02T04:32:20.296Z,102289.59
2023-05-02T04:34:48.145Z,102296.44
2023-05-02T04:37:16.235Z,102299.13
2023-05-02T04:39:44.650Z,102300.28
2023-05-02T04:42:16.981Z,102323.81
2023-05-02T04:44:54.422Z,102319.69
2023-05-02T04:47:21.639Z,102325.41
2023-05-02T04:49:48.312Z,102336.41
2023-05-02T04:52:14.942Z,102332.63
2023-05-02T04:54:41.509Z,102340.25
2023-05-02T04:57:09.899Z,102345.56
2023-05-02T04:59:39.593Z,102353.91
2023-05-02T05:02:08.280Z,102351.25
2023-05-02T05:04:35.688Z,102341.75
2023-05-02T05:07:02.277Z,102355.41
2023-05-02T05:09:29.167Z,102358.06
2023-05-02T05:11:56.740Z,102368.31
2023-05-02T05:14:24.223Z,102370.59
2023-05-02T05:16:54.045Z,102381.19
2023-05-02T05:19:22.972Z,102369.44
2023-05-02T05:21:50.344Z,102375.50
2023-05-02T05:24:18.526Z,102379.66
2023-05-02T05:26:45.813Z,102384.56
2023-05-02T05:29:12.687Z,102385.34
2023-05-02T05:31:41.749Z,102380.44
2023-05-02T05:34:12.536Z,102392.56
2023-05-02T05:36:42.713Z,102392.97
2023-05-02T05:39:10.325Z,102394.13
2023-05-02T05:41:39.304Z,102401.34
2023-05-02T05:44:09.093Z,102413.44
2023-05-02T05:46:35.573Z,102412.72
2023-05-02T05:49:03.676Z,102423.75
2023-05-02T05:51:31.394Z,102426.75
2023-05-02T05:53:59.351Z,102427.50
2023-05-02T05:56:26.948Z,102438.88
2023-05-02T05:59:06.776Z,102436.59
2023-05-02T06:01:34.066Z,102441.91
2023-05-02T06:04:02.918Z,102443.41
2023-05-02T06:06:30.118Z,102451.00
2023-05-02T06:08:56.705Z,102455.53
2023-05-02T06:11:26.427Z,102453.63
2023-05-02T06:13:53.345Z,102450.56
2023-05-02T06:16:20.317Z,102460.00
2023-05-02T06:18:47.479Z,102469.81
2023-05-02T06:21:13.962Z,102467.13
2023-05-02T06:23:40.971Z,102473.56
2023-05-02T06:26:07.497Z,102475.81
2023-05-02T06:28:33.880Z,102478.78
2023-05-02T06:31:02.730Z,102485.91
2023-05-02T06:33:30.041Z,102487.38
2023-05-02T06:35:58.520Z,102489.25
2023-05-02T06:38:25.875Z,102493.03
2023-05-02T06:40:52.358Z,102498.72
2023-05-02T06:43:19.170Z,102499.81
2023-05-02T06:45:45.730Z,102511.19
2023-05-02T06:48:12.291Z,102515.00
2023-05-02T06:50:38.946Z,102516.53
2023-05-02T06:53:06.137Z,102518.84
2023-05-02T06:55:32.795Z,102520.41
2023-05-02T06:57:59.534Z,102531.44
2023-05-02T07:00:26.447Z,102538.66
2023-05-02T07:02:52.966Z,102540.94
2023-05-02T07:05:19.441Z,102543.59
2023-05-02T07:07:45.889Z,102551.59
2023-05-02T07:10:12.548Z,102551.59
2023-05-02T07:12:39.470Z,102553.09
2023-05-02T07:15:07.208Z,102562.22
2023-05-02T07:17:33.958Z,102557.22
2023-05-02T07:20:00.877Z,102561.38
2023-05-02T07:22:27.625Z,102563.97
2023-05-02T07:24:58.797Z,102571.56
2023-05-02T07:27:25.808Z,102575.81
2023-05-02T07:29:52.411Z,102586.06
2023-05-02T07:32:21.703Z,102584.94
2023-05-02T07:34:48.648Z,102579.97
2023-05-02T07:37:15.124Z,102584.91
2023-05-02T07:39:41.577Z,102578.44
2023-05-02T07:42:07.989Z,102584.06
2023-05-02T07:44:35.928Z,102595.81
2023-05-02T07:47:02.657Z,102590.81
2023-05-02T07:49:29.280Z,102593.06
2023-05-02T07:51:58.779Z,102597.56
2023-05-02T07:54:28.335Z,102603.19
2023-05-02T07:56:57.449Z,102598.19
2023-05-02T07:59:23.903Z,102599.66
2023-05-02T08:01:50.473Z,102611.34
2023-05-02T08:04:17.341Z,102613.91
2023-05-02T08:06:45.084Z,102617.38
2023-05-02T08:09:11.635Z,102609.34
2023-05-02T08:11:38.086Z,102617.38
2023-05-02T08:14:04.586Z,102612.47
2023-05-02T08:16:31.367Z,102626.19
2023-05-02T08:18:57.872Z,102625.47
2023-05-02T08:21:24.367Z,102632.28
2023-05-02T08:23:50.777Z,102631.91
2023-05-02T08:26:18.996Z,102633.81
2023-05-02T08:28:45.488Z,102638.19
2023-05-02T08:31:11.936Z,102630.84
2023-05-02T08:33:38.419Z,102644.47
2023-05-02T08:36:12.277Z,102643.31
2023-05-02T08:38:38.940Z,102652.69
2023-05-02T08:41:12.820Z,102646.13
2023-05-02T08:43:40.197Z,102654.84
2023-05-02T08:46:10.126Z,102651.03
2023-05-02T08:48:37.513Z,102656.56
2023-05-02T08:51:04.764Z,102662.84
2023-05-02T08:53:35.083Z,102661.63
2023-05-02T08:56:01.702Z,102666.91
2023-05-02T08:58:29.025Z,102674.72
2023-05-02T09:00:56.849Z,102673.53
2023-05-02T09:03:26.402Z,102672.13
2023-05-02T09:05:55.248Z,102676.03
2023-05-02T09:08:25.383Z,102670.13
2023-05-02T09:10:51.854Z,102680.53
2023-05-02T09:13:29.605Z,102685.84
2023-05-02T09:16:04.770Z,102680.13
2023-05-02T09:18:35.775Z,102687.66
2023-05-02T09:21:06.599Z,102676.66
2023-05-02T09:23:40.588Z,102682.41
2023-05-02T09:26:32.222Z,102681.56
2023-05-02T09:29:01.171Z,102698.63
2023-05-02T09:31:54.070Z,102690.88
2023-05-02T09:34:20.964Z,102691.31
2023-05-02T09:36:51.262Z,102694.63
2023-05-02T09:39:24.748Z,102696.66
2023-05-02T09:41:52.910Z,102697.66
2023-05-02T09:44:21.504Z,102700.69
2023-05-02T09:46:49.906Z,102707.03
2023-05-02T09:49:19.961Z,102706.88
2023-05-02T09:51:47.748Z,102714.34
2023-05-02T09:54:15.238Z,102715.03
2023-05-02T09:56:57.390Z,102723.88
2023-05-02T09:59:24.907Z,102717.09
2023-05-02T10:02:02.103Z,102712.06
2023-05-02T10:04:31.005Z,102708.69
2023-05-02T10:06:57.631Z,102701.50
2023-05-02T10:09:25.838Z,102704.97
2023-05-02T10:11:54.745Z,102716.41
2023-05-02T10:14:23.412Z,102712.41
2023-05-02T10:17:01.301Z,102718.13
2023-05-02T10:19:33.500Z,102727.38
2023-05-02T10:22:00.747Z,102733.34
2023-05-02T10:24:30.493Z,102730.44
2023-05-02T10:26:57.141Z,102743.41
2023-05-02T10:29:23.661Z,102743.78
2023-05-02T10:31:50.950Z,102741.09
2023-05-02T10:34:18.830Z,102736.47
2023-05-02T10:36:45.923Z,102747.56
2023-05-02T10:39:12.462Z,102745.84
2023-05-02T10:41:41.588Z,102738.63
2023-05-02T10:44:08.709Z,102754.19
2023-05-02T10:46:43.326Z,102742.28
2023-05-02T10:49:11.806Z,102741.69
2023-05-02T10:51:41.173Z,102750.81
2023-05-02T10:54:16.873Z,102755.28
2023-05-02T10:57:12.806Z,102742.81
2023-05-02T10:59:41.291Z,102747.59
2023-05-02T11:02:28.021Z,102749.72
2023-05-02T11:05:22.801Z,102755.25
2023-05-02T11:07:49.543Z,102765.28
2023-05-02T11:10:16.045Z,102761.28
2023-05-02T11:12:49.281Z,102759.16
2023-05-02T11:15:41.374Z,102754.75
2023-05-02T11:18:09.653Z,102752.28
2023-05-02T11:20:39.459Z,102763.19
2023-05-02T11:23:15.356Z,102768.41
2023-05-02T11:25:43.565Z,102754.84
2023-05-02T11:28:37.949Z,102763.28
2023-05-02T11:31:09.588Z,102759.59
2023-05-02T11:33:36.226Z,102772.81
2023-05-02T11:36:03.169Z,102779.16
2023-05-02T11:38:37.566Z,102772.75
2023-05-02T11:41:04.676Z,102766.88
2023-05-02T11:43:34.265Z,102767.69
2023-05-02T11:46:02.454Z,102764.72
2023-05-02T11:48:30.843Z,102770.56
2023-05-02T11:51:03.438Z,102770.66
2023-05-02T11:53:31.343Z,102768.34
2023-05-02T11:56:01.334Z,102777.47
2023-05-02T11:58:32.073Z,102792.63
2023-05-02T12:00:59.807Z,102781.38
2023-05-02T12:03:32.033Z,102787.41
2023-05-02T12:06:20.674Z,102793.03
2023-05-02T12:08:48.923Z,102781.81
2023-05-02T12:11:16.523Z,102802.59
2023-05-02T12:13:48.625Z,102791.63
2023-05-02T12:16:16.138Z,102801.66
2023-05-02T12:18:43.070Z,102806.41
2023-05-02T12:21:09.876Z,102813.75
2023-05-02T12:23:37.614Z,102809.31
2023-05-02T12:26:22.072Z,102819.28
2023-05-02T12:28:54.388Z,102803.84
2023-05-02T12:31:21.392Z,102804.78
2023-05-02T12:33:50.111Z,102816.31
2023-05-02T12:36:17.652Z,102807.06
2023-05-02T12:39:10.510Z,102813.88
2023-05-02T12:41:39.426Z,102832.44
2023-05-02T12:44:07.510Z,102825.53
2023-05-02T12:46:34.087Z,102821.66
2023-05-02T12:49:12.500Z,102824.78
2023-05-02T12:51:39.990Z,102843.84
2023-05-02T12:54:07.076Z,102833.06
2023-05-02T12:56:40.844Z,102835.69
2023-05-02T12:59:08.087Z,102844.94
2023-05-02T13:01:34.945Z,102842.53
2023-05-02T13:04:01.757Z,102831.41
2023-05-02T13:06:28.441Z,102825.91
2023-05-02T13:08:54.842Z,102838.34
2023-05-02T13:11:21.492Z,102835.22
2023-05-02T13:13:48.159Z,102830.88
2023-05-02T13:16:14.774Z,102832.47
2023-05-02T13:18:41.468Z,102834.09
2023-05-02T13:21:07.969Z,102828.00
2023-05-02T13:23:34.461Z,102831.34
2023-05-02T13:26:00.874Z,102843.19
2023-05-02T13:28:29.040Z,102841.00
2023-05-02T13:30:55.455Z,102842.00
2023-05-02T13:33:22.014Z,102847.09
2023-05-02T13:35:48.518Z,102843.50
2023-05-02T13:38:14.964Z,102835.13
2023-05-02T13:40:41.623Z,102846.25
2023-05-02T13:43:08.048Z,102843.75
2023-05-02T13:45:34.545Z,102838.66
2023-05-02T13:48:01.033Z,102841.59
2023-05-02T13:50:27.542Z,102838.09
2023-05-02T13:52:53.955Z,102831.78
2023-05-02T13:55:20.580Z,102840.72
2023-05-02T13:57:47.130Z,102853.81
2023-05-02T14:00:14.165Z,102849.66
2023-05-02T14:02:40.732Z,102849.34
2023-05-02T14:05:07.962Z,102856.84
2023-05-02T14:07:34.499Z,102848.81
2023-05-02T14:10:01.142Z,102861.44
2023-05-02T14:12:28.414Z,102848.41
2023-05-02T14:14:54.916Z,102850.72
2023-05-02T14:17:21.614Z,102849.91
2023-05-02T14:19:48.175Z,102853.75
2023-05-02T14:22:14.742Z,102846.25
2023-05-02T14:24:41.254Z,102854.03
2023-05-02T14:27:12.823Z,102839.03
2023-05-02T14:29:39.887Z,102844.97
2023-05-02T14:32:06.470Z,102854.03
2023-05-02T14:34:32.897Z,102860.56
2023-05-02T14:36:59.304Z,102856.81
2023-05-02T14:39:27.429Z,102850.25
2023-05-02T14:41:53.869Z,102855.50
2023-05-02T14:44:20.341Z,102858.22
2023-05-02T14:46:46.840Z,102860.94
2023-05-02T14:49:13.353Z,102867.19
2023-05-02T14:51:40.033Z,102859.41
2023-05-02T14:54:07.131Z,102863.25
2023-05-02T14:56:33.732Z,102851.88
2023-05-02T14:59:00.326Z,102852.50
2023-05-02T15:01:27.068Z,102857.44
2023-05-02T15:04:05.872Z,102856.50
2023-05-02T15:06:34.223Z,102855.00
2023-05-02T15:09:01.729Z,102855.06
2023-05-02T15:11:28.226Z,102847.16
2023-05-02T15:13:56.585Z,102838.88
2023-05-02T15:16:24.899Z,102854.22
2023-05-02T15:18:51.381Z,102847.00
2023-05-02T15:21:17.831Z,102847.00
2023-05-02T15:23:44.292Z,102856.22
2023-05-02T15:26:11.018Z,102848.03
2023-05-02T15:28:37.443Z,102849.97
2023-05-02T15:31:04.154Z,102850.69
2023-05-02T15:33:30.781Z,102843.47
2023-05-02T15:35:58.375Z,102842.81
2023-05-02T15:38:25.751Z,102848.06
2023-05-02T15:40:59.405Z,102847.34
2023-05-02T15:43:27.167Z,102851.94
2023-05-02T15:45:56.145Z,102841.19
2023-05-02T15:48:23.535Z,102855.94
2023-05-02T15:50:50.705Z,102853.16
2023-05-02T15:53:17.525Z,102856.75
2023-05-02T15:55:45.823Z,102846.56
2023-05-02T15:58:13.332Z,102851.91
2023-05-02T16:00:40.203Z,102848.81
2023-05-02T16:03:06.762Z,102854.97
2023-05-02T16:05:34.006Z,102855.41
2023-05-02T16:08:00.759Z,102856.13
2023-05-02T16:10:28.518Z,102858.44
2023-05-02T16:12:55.133Z,102864.81
2023-05-02T16:15:22.588Z,102860.22
2023-05-02T16:17:49.851Z,102858.50
2023-05-02T16:20:17.297Z,102861.69
2023-05-02T16:22:47.693Z,102854.94
2023-05-02T16:25:16.109Z,102857.22
2023-05-02T16:27:43.053Z,102865.22
2023-05-02T16:30:10.092Z,102871.56
2023-05-02T16:32:40.398Z,102857.50
2023-05-02T16:35:10.815Z,102865.91
2023-05-02T16:37:37.417Z,102866.38
2023-05-02T16:40:05.968Z,102865.63
2023-05-02T16:42:33.050Z,102861.84
2023-05-02T16:44:59.553Z,102859.16
2023-05-02T16:47:26.790Z,102866.81
2023-05-02T16:49:57.897Z,102859.56
2023-05-02T16:52:25.006Z,102864.19
2023-05-02T16:54:51.628Z,102866.53
2023-05-02T16:57:21.539Z,102870.84
2023-05-02T16:59:49.659Z,102873.50
2023-05-02T17:02:16.785Z,102873.63
2023-05-02T17:04:43.395Z,102870.94
2023-05-02T17:07:12.143Z,102870.59
2023-05-02T17:09:39.498Z,102868.75
2023-05-02T17:12:06.637Z,102875.63
2023-05-02T17:14:33.801Z,102877.56
2023-05-02T17:17:01.337Z,102885.97
2023-05-02T17:19:27.982Z,102870.00
2023-05-02T17:21:56.566Z,102884.50
2023-05-02T17:24:23.312Z,102877.59
2023-05-02T17:26:51.049Z,102873.75
2023-05-02T17:29:17.645Z,102868.00
2023-05-02T17:31:44.290Z,102871.47
2023-05-02T17:34:10.774Z,102868.41
2023-05-02T17:36:39.949Z,102875.03
2023-05-02T17:39:06.444Z,102875.50
2023-05-02T17:41:35.829Z,102868.31
2023-05-02T17:44:02.322Z,102872.91
2023-05-02T17:46:28.827Z,102879.75
2023-05-02T17:48:55.333Z,102883.59
2023-05-02T17:51:21.841Z,102881.38
2023-05-02T17:53:51.428Z,102881.81
2023-05-02T17:56:18.762Z,102882.22
2023-05-02T17:58:45.632Z,102888.78
2023-05-02T18:01:13.806Z,102891.91
2023-05-02T18:03:40.617Z,102884.28
2023-05-02T18:06:07.422Z,102896.88
2023-05-02T18:08:34.019Z,102894.59
2023-05-02T18:11:00.808Z,102901.50
2023-05-02T18:13:27.389Z,102896.19
2023-05-02T18:15:57.588Z,102901.91
2023-05-02T18:18:24.195Z,102900.75
2023-05-02T18:20:50.874Z,102902.28
2023-05-02T18:23:17.422Z,102905.72
2023-05-02T18:25:44.216Z,102900.06
2023-05-02T18:28:11.681Z,102894.44
2023-05-02T18:30:38.393Z,102902.47
2023-05-02T18:33:06.475Z,102907.06
2023-05-02T18:35:33.249Z,102902.56
2023-05-02T18:37:59.862Z,102908.28
2023-05-02T18:40:26.540Z,102898.00
2023-05-02T18:42:53.144Z,102904.47
2023-05-02T18:45:19.682Z,102913.22
2023-05-02T18:47:46.219Z,102910.94
2023-05-02T18:50:12.668Z,102908.31
2023-05-02T18:52:39.124Z,102911.38
2023-05-02T18:55:06.127Z,102910.59
2023-05-02T18:57:33.821Z,102911.75
2023-05-02T19:00:00.859Z,102909.84
2023-05-02T19:02:27.753Z,102912.13
2023-05-02T19:04:54.637Z,102918.19
2023-05-02T19:07:21.072Z,102922.38
2023-05-02T19:09:47.500Z,102926.56
2023-05-02T19:12:13.975Z,102918.59
2023-05-02T19:14:40.833Z,102925.41
2023-05-02T19:17:07.376Z,102923.91
2023-05-02T19:19:33.809Z,102920.84
2023-05-02T19:22:00.342Z,102932.22
2023-05-02T19:24:26.883Z,102937.16
2023-05-02T19:26:53.670Z,102926.91
2023-05-02T19:29:20.575Z,102939.03
2023-05-02T19:31:47.064Z,102939.41
2023-05-02T19:34:13.585Z,102935.97
2023-05-02T19:36:40.005Z,102933.66
2023-05-02T19:39:06.640Z,102932.13
2023-05-02T19:41:33.271Z,102935.50
2023-05-02T19:44:00.414Z,102936.25
2023-05-02T19:46:27.181Z,102937.41
2023-05-02T19:48:53.728Z,102946.50
2023-05-02T19:51:25.207Z,102945.72
2023-05-02T19:53:52.941Z,102936.94
2023-05-02T19:56:21.430Z,102946.41
2023-05-02T19:58:47.899Z,102950.94
2023-05-02T20:01:14.830Z,102951.69
2023-05-02T20:03:41.598Z,102945.59
2023-05-02T20:06:08.326Z,102945.94
2023-05-02T20:08:34.983Z,102951.25
2023-05-02T20:11:01.569Z,102968.28
2023-05-02T20:13:28.083Z,102969.34
2023-05-02T20:15:54.552Z,102972.34
2023-05-02T20:18:21.161Z,102973.09
2023-05-02T20:20:47.922Z,102973.47
2023-05-02T20:23:14.876Z,102974.94
2023-05-02T20:25:42.901Z,102972.59
2023-05-02T20:28:09.688Z,102964.25
2023-05-02T20:30:36.247Z,102972.19
2023-05-02T20:33:14.097Z,102969.50
2023-05-02T20:35:42.583Z,102977.78
2023-05-02T20:38:09.721Z,102984.22
2023-05-02T20:40:40.708Z,102982.31
2023-05-02T20:43:07.653Z,102983.41
2023-05-02T20:45:34.255Z,102989.03
2023-05-02T20:48:00.881Z,102998.47
2023-05-02T20:50:28.251Z,102997.66
2023-05-02T20:52:55.397Z,103002.56
2023-05-02T20:55:22.894Z,102992.69
2023-05-02T20:57:52.925Z,102999.50
2023-05-02T21:00:21.818Z,103003.25
2023-05-02T21:02:48.384Z,102995.25
2023-05-02T21:05:15.019Z,102996.72
2023-05-02T21:07:41.576Z,102989.09
2023-05-02T21:10:09.231Z,102995.09
2023-05-02T21:12:35.693Z,102994.66
2023-05-02T21:15:02.310Z,102991.97
2023-05-02T21:17:28.872Z,102995.72
2023-05-02T21:19:55.983Z,102987.31
2023-05-02T21:22:22.526Z,102987.31
2023-05-02T21:24:50.127Z,102999.38
2023-05-02T21:27:16.760Z,102989.84
2023-05-02T21:29:43.317Z,102985.28
2023-05-02T21:32:10.026Z,102987.53
2023-05-02T21:34:36.787Z,102982.19
2023-05-02T21:37:03.175Z,102983.66
2023-05-02T21:39:29.570Z,102985.50
2023-05-02T21:41:56.323Z,102981.69
2023-05-02T21:44:22.739Z,102978.63
2023-05-02T21:46:50.400Z,102981.63
2023-05-02T21:49:16.938Z,102977.81
2023-05-02T21:51:43.396Z,102987.25
2023-05-02T21:54:09.878Z,102986.44
2023-05-02T21:56:36.368Z,102992.13
2023-05-02T21:59:03.353Z,102995.88
2023-05-02T22:01:30.002Z,102986.00
2023-05-02T22:03:57.912Z,102986.72
2023-05-02T22:06:24.788Z,102990.44
2023-05-02T22:08:51.452Z,102976.75
2023-05-02T22:11:18.033Z,102979.75
2023-05-02T22:13:44.625Z,102969.13
2023-05-02T22:16:11.352Z,102977.75
2023-05-02T22:18:37.847Z,102967.13
2023-05-02T22:21:04.363Z,102963.66
2023-05-02T22:23:30.933Z,102961.72
2023-05-02T22:25:57.647Z,102966.22
2023-05-02T22:28:24.215Z,102966.59
2023-05-02T22:30:50.894Z,102968.41
2023-05-02T22:33:17.433Z,102969.88
2023-05-02T22:35:43.912Z,102971.34
2023-05-02T22:38:14.974Z,102963.78
2023-05-02T22:40:41.502Z,102963.72
2023-05-02T22:43:08.291Z,102960.66
2023-05-02T22:45:36.466Z,102961.38
2023-05-02T22:48:03.207Z,102960.56
2023-05-02T22:50:31.882Z,102959.03
2023-05-02T22:52:59.597Z,102963.50
2023-05-02T22:55:26.189Z,102962.69
2023-05-02T22:57:52.759Z,102970.56
2023-05-02T23:00:19.806Z,102966.00
2023-05-02T23:02:46.524Z,102965.16
2023-05-02T23:05:14.192Z,102965.88
2023-05-02T23:07:40.677Z,102968.78
2023-05-02T23:10:07.931Z,102971.72
2023-05-02T23:12:34.550Z,102975.00
2023-05-02T23:15:01.242Z,102978.34
2023-05-02T23:17:27.748Z,102972.97
2023-05-02T23:19:54.219Z,102981.19
2023-05-02T23:22:20.761Z,102982.28
2023-05-02T23:24:48.072Z,102982.97
2023-05-02T23:27:15.197Z,102979.50
2023-05-02T23:29:41.770Z,102979.44
2023-05-02T23:32:08.448Z,102970.69
2023-05-02T23:34:38.013Z,102982.69
2023-05-02T23:37:06.194Z,102986.03
2023-05-02T23:39:33.306Z,102998.41
2023-05-02T23:42:00.664Z,103003.19
2023-05-02T23:44:27.248Z,103002.38
2023-05-02T23:46:53.836Z,103001.19
2023-05-02T23:49:21.306Z,103006.06
2023-05-02T23:51:47.851Z,103009.75
2023-05-02T23:54:14.396Z,103006.28
2023-05-02T23:56:40.882Z,103014.88
2023-05-02T23:59:07.418Z,103014.47
